Time;durP1;ratioP1;P1;durP2;ratioP2;P2;SDS_P1;SDS_P2;PMS_P1;PMS_P2;Temp;Humidity;BMP_temperature;BMP_pressure;BME280_temperature;BME280_humidity;BME280_pressure;Samples;Min_cycle;Max_cycle;Signal;HPM_P1;HPM_P2
2022/11/14 00:01:28;;;;;;;14.85;7.82;;;;;;;8.23;66.16;97136.63;4909894;28;20932;-74
2022/11/14 00:03:54;;;;;;;16.38;8.38;;;;;;;8.20;65.78;97125.94;4876122;28;20225;-74
2022/11/14 00:06:19;;;;;;;14.38;8.20;;;;;;;8.25;66.13;97119.03;4895071;28;20499;-74
2022/11/14 00:08:45;;;;;;;15.32;8.77;;;;;;;8.31;66.01;97106.97;4910376;28;20246;-75
2022/11/14 00:11:10;;;;;;;15.05;8.50;;;;;;;8.31;65.75;97106.97;4915061;28;20204;-75
2022/11/14 00:13:35;;;;;;;12.80;7.35;;;;;;;8.35;65.82;97102.88;4935041;28;20236;-74
2022/11/14 00:16:01;;;;;;;13.90;7.50;;;;;;;8.39;66.20;97113.59;4915717;28;20177;-74
2022/11/14 00:18:26;;;;;;;13.50;7.80;;;;;;;8.46;65.58;97123.84;4918973;28;20170;-74
2022/11/14 00:20:52;;;;;;;17.30;9.63;;;;;;;8.40;65.94;97120.34;4919707;28;20287;-74
2022/11/14 00:23:18;;;;;;;14.88;8.60;;;;;;;8.42;66.25;97120.91;4893746;28;20278;-74
2022/11/14 00:25:44;;;;;;;17.40;9.30;;;;;;;8.47;65.97;97110.66;4913612;28;20272;-73
2022/11/14 00:28:10;;;;;;;17.90;9.88;;;;;;;8.47;65.83;97108.06;4919736;28;20488;-74
2022/11/14 00:30:35;;;;;;;16.58;9.05;;;;;;;8.50;66.30;97110.19;4920362;28;20259;-75
2022/11/14 00:33:00;;;;;;;20.63;9.75;;;;;;;8.48;66.45;97108.84;4916865;28;20308;-74
2022/11/14 00:35:26;;;;;;;17.98;10.95;;;;;;;8.53;66.08;97107.09;4896161;28;20208;-74
2022/11/14 00:37:51;;;;;;;23.48;11.52;;;;;;;8.55;65.96;97102.50;4910795;28;20387;-74
2022/11/14 00:40:17;;;;;;;20.73;10.05;;;;;;;8.53;66.50;97106.34;4918642;28;20449;-74
2022/11/14 00:42:42;;;;;;;22.48;11.07;;;;;;;8.57;65.80;97107.47;4918843;28;20283;-75
2022/11/14 00:45:08;;;;;;;22.50;11.48;;;;;;;8.62;65.99;97108.31;4894515;28;20660;-74
2022/11/14 00:47:33;;;;;;;21.48;11.98;;;;;;;8.68;66.05;97098.81;4892963;28;20243;-74
2022/11/14 00:49:59;;;;;;;29.95;12.90;;;;;;;8.63;66.15;97093.53;4898714;28;20188;-74
2022/11/14 00:52:24;;;;;;;30.10;12.88;;;;;;;8.53;66.93;97094.13;4894067;28;20527;-74
2022/11/14 00:54:49;;;;;;;24.73;11.88;;;;;;;8.72;66.38;97097.34;4914520;28;20233;-74
2022/11/14 00:57:15;;;;;;;22.02;10.73;;;;;;;8.84;65.90;97092.06;4913752;28;20638;-75
2022/11/14 00:59:40;;;;;;;23.10;11.48;;;;;;;8.90;65.85;97072.19;4916768;28;20123;-75
2022/11/14 01:02:05;;;;;;;21.15;11.73;;;;;;;8.90;66.18;97070.34;4916370;28;20205;-75
2022/11/14 01:04:31;;;;;;;23.10;11.88;;;;;;;9.02;65.83;97075.47;4905785;28;20334;-75
2022/11/14 01:06:56;;;;;;;21.88;11.27;;;;;;;9.01;65.74;97079.09;4900535;28;20570;-75
2022/11/14 01:09:21;;;;;;;22.10;11.27;;;;;;;9.05;65.89;97074.22;4924362;28;20296;-75
2022/11/14 01:11:47;;;;;;;21.35;10.95;;;;;;;9.05;65.61;97080.22;4894091;28;20282;-75
2022/11/14 01:14:12;;;;;;;25.40;12.50;;;;;;;9.04;65.88;97072.66;4920033;28;20205;-74
2022/11/14 01:16:37;;;;;;;21.88;10.15;;;;;;;9.08;65.45;97073.75;4928528;28;20217;-74
2022/11/14 01:19:03;;;;;;;21.38;10.93;;;;;;;9.10;65.56;97079.47;4923020;28;20334;-75
2022/11/14 01:21:29;;;;;;;17.40;9.77;;;;;;;9.08;65.34;97082.34;4919085;28;20338;-74
2022/11/14 01:23:54;;;;;;;23.00;10.40;;;;;;;9.09;65.71;97083.91;4899551;28;20449;-74
2022/11/14 01:26:20;;;;;;;21.95;10.68;;;;;;;9.12;65.97;97078.22;4883469;28;20401;-75
2022/11/14 01:28:45;;;;;;;24.30;11.63;;;;;;;9.17;65.81;97083.50;4903074;28;20281;-75
2022/11/14 01:31:14;;;;;;;23.00;12.23;;;;;;;9.18;65.83;97084.28;4900957;28;20249;-74
2022/11/14 01:33:39;;;;;;;23.73;11.75;;;;;;;9.24;65.37;97087.75;4917715;28;20681;-74
2022/11/14 01:36:06;;;;;;;23.02;11.45;;;;;;;9.21;65.72;97075.25;4901341;28;20173;-74
2022/11/14 01:38:31;;;;;;;24.13;11.05;;;;;;;9.17;65.73;97077.53;4902063;28;20186;-74
2022/11/14 01:40:57;;;;;;;19.30;10.25;;;;;;;9.11;66.05;97071.44;4916610;28;20280;-75
2022/11/14 01:43:23;;;;;;;22.17;11.57;;;;;;;9.15;65.72;97067.38;4942293;28;20206;-75
2022/11/14 01:46:22;;;;;;;20.75;10.82;;;;;;;9.20;65.95;97058.84;4914615;28;20228;-75
2022/11/14 01:48:51;;;;;;;26.65;10.63;;;;;;;9.11;65.47;97050.69;4892247;28;20315;-75
2022/11/14 01:51:33;;;;;;;22.45;10.70;;;;;;;9.21;65.62;97051.88;4922327;28;20595;-75
2022/11/14 01:54:01;;;;;;;23.95;11.10;;;;;;;9.19;65.38;97050.28;4926720;28;20623;-75
2022/11/14 01:56:38;;;;;;;23.27;12.15;;;;;;;9.28;65.46;97052.47;4911055;28;20288;-77
2022/11/14 01:59:10;;;;;;;21.52;11.02;;;;;;;9.40;65.20;97044.59;4888939;28;20265;-74
2022/11/14 02:01:41;;;;;;;21.27;10.40;;;;;;;9.30;65.22;97045.22;4911199;28;20179;-75
2022/11/14 02:04:06;;;;;;;25.10;12.02;;;;;;;9.21;65.17;97051.88;4894414;28;20181;-75
2022/11/14 02:06:32;;;;;;;20.60;10.40;;;;;;;9.16;65.39;97040.34;4899822;28;20737;-74
2022/11/14 02:09:01;;;;;;;28.73;11.77;;;;;;;9.12;65.31;97031.47;4916072;28;20270;-77
2022/11/14 02:11:37;;;;;;;23.10;10.75;;;;;;;9.24;65.29;97025.41;4914776;28;20208;-77
2022/11/14 02:14:03;;;;;;;21.90;11.55;;;;;;;9.25;65.04;97027.75;4901260;28;20244;-74
2022/11/14 02:16:28;;;;;;;21.08;10.75;;;;;;;9.31;65.21;97031.22;4927709;28;20208;-74
2022/11/14 02:18:54;;;;;;;21.08;10.18;;;;;;;9.18;65.18;97033.13;4886002;28;20528;-76
2022/11/14 02:21:19;;;;;;;22.23;11.65;;;;;;;9.27;64.81;97027.50;4953805;28;20301;-77
2022/11/14 02:23:44;;;;;;;25.85;11.85;;;;;;;9.19;65.22;97013.91;4918990;28;20267;-77
2022/11/14 02:26:10;;;;;;;22.40;11.40;;;;;;;9.25;65.12;97012.16;4915307;28;20270;-74
2022/11/14 02:28:35;;;;;;;23.60;11.20;;;;;;;9.27;65.26;97011.94;4924888;28;20162;-75
2022/11/14 02:31:00;;;;;;;23.17;11.75;;;;;;;9.26;65.24;97005.94;4924979;28;20308;-74
2022/11/14 02:33:26;;;;;;;23.83;12.20;;;;;;;9.20;65.27;96999.09;4914898;28;20133;-74
2022/11/14 02:35:51;;;;;;;23.27;11.43;;;;;;;9.23;65.32;97000.44;4911815;28;20209;-74
2022/11/14 02:38:16;;;;;;;22.92;10.82;;;;;;;9.27;65.02;96996.34;4895855;28;20203;-74
2022/11/14 02:40:42;;;;;;;26.75;11.63;;;;;;;9.21;65.10;96990.28;4914971;28;20175;-74
2022/11/14 02:43:07;;;;;;;26.35;12.50;;;;;;;8.95;65.85;96982.16;4914503;28;20170;-74
2022/11/14 02:45:32;;;;;;;23.00;10.73;;;;;;;9.17;65.48;96979.59;4894601;28;20273;-74
2022/11/14 02:47:58;;;;;;;23.92;12.23;;;;;;;9.26;64.85;96972.19;4914339;28;20714;-74
2022/11/14 02:50:23;;;;;;;24.45;11.85;;;;;;;9.27;64.84;96973.75;4914526;28;20705;-74
2022/11/14 02:52:49;;;;;;;20.52;10.45;;;;;;;9.33;64.95;96972.78;4911923;28;20645;-74
2022/11/14 02:55:14;;;;;;;23.08;11.63;;;;;;;9.29;65.21;96973.53;4920536;28;20211;-74
2022/11/14 02:57:39;;;;;;;25.23;11.73;;;;;;;9.26;66.01;96972.19;4884497;28;20426;-75
2022/11/14 03:00:05;;;;;;;23.15;10.75;;;;;;;9.21;65.61;96974.72;4916242;28;20368;-74
2022/11/14 03:02:31;;;;;;;21.95;11.77;;;;;;;9.28;65.68;96971.94;4901077;28;20329;-76
2022/11/14 03:04:56;;;;;;;24.30;12.38;;;;;;;9.26;65.47;96974.00;4938839;28;20284;-74
2022/11/14 03:07:22;;;;;;;21.25;11.45;;;;;;;9.26;65.91;96961.00;4924530;28;20204;-75
2022/11/14 03:09:47;;;;;;;26.02;12.27;;;;;;;9.28;65.72;96951.16;4927563;28;20654;-75
2022/11/14 03:12:17;;;;;;;22.23;11.18;;;;;;;9.37;65.90;96952.28;4909533;28;20758;-75
2022/11/14 03:14:42;;;;;;;22.20;10.98;;;;;;;9.27;66.50;96949.56;4909465;28;20702;-75
2022/11/14 03:17:08;;;;;;;26.85;13.10;;;;;;;9.27;66.58;96946.97;4917893;28;20266;-75
2022/11/14 03:19:33;;;;;;;25.83;14.40;;;;;;;9.31;65.98;96943.66;4914652;28;20282;-75
2022/11/14 03:21:58;;;;;;;28.73;13.80;;;;;;;9.27;66.51;96936.59;4914057;28;20663;-75
2022/11/14 03:24:24;;;;;;;24.90;11.75;;;;;;;9.28;66.29;96938.94;4941718;28;20374;-74
2022/11/14 03:26:49;;;;;;;23.42;11.73;;;;;;;9.32;66.33;96939.25;4924999;28;20690;-75
2022/11/14 03:29:14;;;;;;;25.55;11.80;;;;;;;9.32;66.23;96941.84;4900650;28;20522;-75
2022/11/14 03:31:40;;;;;;;26.10;12.77;;;;;;;9.31;66.25;96937.69;4913322;28;20914;-75
2022/11/14 03:34:05;;;;;;;23.38;12.70;;;;;;;9.31;66.15;96932.50;4947366;28;20297;-74
2022/11/14 03:36:30;;;;;;;28.13;12.95;;;;;;;9.28;66.59;96936.34;4925281;28;20373;-74
2022/11/14 03:38:56;;;;;;;32.83;12.68;;;;;;;9.25;66.58;96934.22;4917528;28;20317;-75
2022/11/14 03:41:21;;;;;;;26.48;12.57;;;;;;;9.16;66.68;96935.69;4916793;28;20304;-74
2022/11/14 03:43:46;;;;;;;27.42;11.63;;;;;;;9.13;67.09;96936.16;4884855;28;20251;-75
2022/11/14 03:46:11;;;;;;;34.63;13.20;;;;;;;9.08;66.97;96934.31;4942519;28;20247;-75
2022/11/14 03:48:37;;;;;;;32.88;12.77;;;;;;;9.12;66.81;96940.56;4915425;28;20178;-75
2022/11/14 03:51:02;;;;;;;25.48;11.45;;;;;;;9.15;66.85;96947.09;4906498;28;20212;-75
2022/11/14 03:53:28;;;;;;;31.55;14.50;;;;;;;9.15;66.97;96945.28;4923209;28;20723;-75
2022/11/14 03:55:53;;;;;;;30.02;12.93;;;;;;;9.17;67.02;96945.84;4916308;28;20353;-74
2022/11/14 03:58:18;;;;;;;33.88;14.23;;;;;;;9.15;67.27;96937.50;4908997;28;20189;-74
2022/11/14 04:00:44;;;;;;;26.45;12.13;;;;;;;9.12;67.22;96940.56;4920298;28;20639;-74
2022/11/14 04:03:09;;;;;;;30.00;11.80;;;;;;;9.14;66.86;96933.31;4900982;28;20541;-75
2022/11/14 04:05:34;;;;;;;30.50;12.50;;;;;;;9.18;67.10;96928.44;4911264;28;20681;-75
2022/11/14 04:08:04;;;;;;;27.48;12.95;;;;;;;9.25;67.13;96918.63;4907377;28;20288;-74
2022/11/14 04:10:29;;;;;;;22.73;10.45;;;;;;;9.16;67.08;96917.50;4903343;28;20179;-75
2022/11/14 04:12:54;;;;;;;24.52;12.65;;;;;;;9.21;67.33;96917.56;4918288;28;20793;-75
2022/11/14 04:15:20;;;;;;;26.10;11.15;;;;;;;9.21;67.17;96922.75;4926676;28;20737;-75
2022/11/14 04:17:45;;;;;;;27.92;11.55;;;;;;;9.21;66.89;96927.19;4919616;28;20296;-74
2022/11/14 04:20:12;;;;;;;27.92;11.43;;;;;;;9.22;66.64;96923.53;4921155;28;20362;-75
2022/11/14 04:22:40;;;;;;;28.75;12.98;;;;;;;9.22;67.00;96920.94;4908885;28;20730;-74
2022/11/14 04:25:07;;;;;;;23.58;11.10;;;;;;;9.29;67.24;96913.78;4924119;28;20192;-74
2022/11/14 04:27:32;;;;;;;21.80;10.75;;;;;;;9.32;66.89;96921.06;4905116;28;20774;-75
2022/11/14 04:29:59;;;;;;;24.45;10.90;;;;;;;9.36;66.51;96914.38;4924871;28;20280;-74
2022/11/14 04:32:24;;;;;;;21.38;9.70;;;;;;;9.37;66.61;96918.53;4903436;28;20187;-74
2022/11/14 04:34:49;;;;;;;21.48;9.38;;;;;;;9.38;66.44;96918.28;4914103;28;20209;-75
2022/11/14 04:37:14;;;;;;;23.25;9.68;;;;;;;9.40;66.67;96910.25;4899729;28;20323;-75
2022/11/14 04:39:40;;;;;;;24.23;12.23;;;;;;;9.37;66.68;96905.53;4918830;28;20569;-75
2022/11/14 04:42:05;;;;;;;26.13;12.07;;;;;;;9.44;66.75;96905.34;4902269;28;20774;-74
2022/11/14 04:44:31;;;;;;;24.30;11.65;;;;;;;9.43;66.11;96914.19;4929490;28;20228;-74
2022/11/14 04:46:56;;;;;;;26.13;12.45;;;;;;;9.42;66.66;96913.38;4924978;28;20354;-74
2022/11/14 04:49:22;;;;;;;28.63;12.35;;;;;;;9.41;66.67;96911.81;4952843;28;20174;-74
2022/11/14 04:51:47;;;;;;;26.63;12.38;;;;;;;9.45;66.47;96915.50;4905111;28;20635;-74
2022/11/14 04:54:12;;;;;;;25.92;12.75;;;;;;;9.47;66.66;96913.44;4908579;28;20246;-75
2022/11/14 04:56:38;;;;;;;27.55;12.45;;;;;;;9.51;66.72;96921.53;4914852;28;20201;-75
2022/11/14 04:59:03;;;;;;;21.38;10.63;;;;;;;9.51;66.38;96919.75;4898991;28;20198;-75
2022/11/14 05:01:28;;;;;;;20.35;10.43;;;;;;;9.53;66.17;96912.47;4911830;28;20239;-74
2022/11/14 05:03:54;;;;;;;23.48;10.40;;;;;;;9.53;66.28;96909.88;4926999;28;20676;-75
2022/11/14 05:06:20;;;;;;;18.50;9.38;;;;;;;9.59;66.08;96913.31;4896016;28;20253;-74
2022/11/14 05:08:45;;;;;;;20.60;10.30;;;;;;;9.65;66.00;96921.97;4918982;28;20220;-75
2022/11/14 05:11:14;;;;;;;21.00;10.38;;;;;;;9.69;66.08;96907.44;4916201;28;20624;-74
2022/11/14 05:13:40;;;;;;;19.67;10.63;;;;;;;9.69;66.51;96907.44;4906986;28;20447;-74
2022/11/14 05:16:06;;;;;;;18.80;9.23;;;;;;;9.71;65.98;96895.75;4900348;28;20358;-74
2022/11/14 05:18:31;;;;;;;18.63;9.98;;;;;;;9.70;66.51;96889.00;4951037;28;20177;-74
2022/11/14 05:20:58;;;;;;;16.73;9.45;;;;;;;9.76;66.22;96876.81;4899159;28;20099;-74
2022/11/14 05:23:23;;;;;;;20.98;10.23;;;;;;;9.82;66.09;96878.44;4887986;28;20209;-74
2022/11/14 05:26:13;;;;;;;19.80;10.32;;;;;;;9.98;65.82;96870.78;4905962;28;20801;-75
2022/11/14 05:28:38;;;;;;;20.20;9.85;;;;;;;9.87;65.97;96868.09;4918236;28;20181;-75
2022/11/14 05:31:05;;;;;;;18.90;9.05;;;;;;;9.94;65.96;96868.66;4918554;28;20666;-75
2022/11/14 05:33:31;;;;;;;20.85;10.40;;;;;;;9.93;65.80;96874.13;4891153;28;20198;-74
2022/11/14 05:36:04;;;;;;;19.02;9.68;;;;;;;10.02;66.05;96869.25;4921923;28;20206;-74
2022/11/14 05:38:30;;;;;;;22.02;10.88;;;;;;;9.80;66.47;96867.53;4916741;28;20236;-75
2022/11/14 05:40:56;;;;;;;21.23;10.02;;;;;;;9.84;66.10;96867.81;4902162;28;20278;-74
2022/11/14 05:43:21;;;;;;;22.83;12.00;;;;;;;9.86;66.17;96861.31;4906351;28;20702;-75
2022/11/14 05:45:46;;;;;;;18.00;9.20;;;;;;;9.86;65.94;96863.91;4901784;28;20171;-74
2022/11/14 05:48:12;;;;;;;20.30;10.45;;;;;;;9.89;66.55;96863.44;4903627;28;20209;-75
2022/11/14 05:50:37;;;;;;;20.73;10.70;;;;;;;9.88;66.32;96861.06;4924005;28;20181;-75
2022/11/14 05:53:03;;;;;;;16.42;8.93;;;;;;;9.87;66.11;96846.50;4904252;28;20359;-74
2022/11/14 05:55:28;;;;;;;20.15;11.15;;;;;;;9.88;66.28;96848.84;4924014;28;20579;-75
2022/11/14 05:57:57;;;;;;;19.95;11.13;;;;;;;10.03;65.99;96850.03;4906215;28;20520;-75
2022/11/14 06:00:22;;;;;;;20.02;10.55;;;;;;;9.96;66.12;96844.25;4920827;28;20216;-75
2022/11/14 06:02:51;;;;;;;19.90;10.38;;;;;;;10.03;66.48;96831.81;4913804;28;20193;-75
2022/11/14 06:05:16;;;;;;;20.83;11.90;;;;;;;9.94;66.07;96840.06;4904753;28;20673;-75
2022/11/14 06:07:42;;;;;;;18.13;9.73;;;;;;;9.96;66.39;96842.41;4925723;28;20217;-75
2022/11/14 06:10:07;;;;;;;21.70;11.38;;;;;;;9.95;66.57;96848.63;4896886;28;20216;-74
2022/11/14 06:12:33;;;;;;;20.65;11.45;;;;;;;9.92;66.52;96851.72;4926025;28;20192;-74
2022/11/14 06:14:58;;;;;;;21.77;12.80;;;;;;;9.91;66.58;96863.19;4925566;28;20208;-75
2022/11/14 06:17:23;;;;;;;28.90;14.27;;;;;;;9.93;66.57;96869.69;4921106;28;20231;-74
2022/11/14 06:19:49;;;;;;;32.08;17.95;;;;;;;9.94;66.50;96868.66;4922567;28;20196;-75
2022/11/14 06:22:14;;;;;;;34.78;18.98;;;;;;;9.94;66.19;96873.88;4926781;28;20651;-75
2022/11/14 06:24:39;;;;;;;27.90;16.77;;;;;;;9.88;66.92;96869.66;4925033;28;20212;-75
2022/11/14 06:27:08;;;;;;;27.50;15.77;;;;;;;10.00;66.73;96863.50;4922460;28;20212;-74
2022/11/14 06:29:33;;;;;;;25.65;15.63;;;;;;;9.89;66.50;96854.84;4921017;28;20153;-74
2022/11/14 06:31:58;;;;;;;20.95;13.18;;;;;;;9.91;66.21;96848.34;4922381;28;20279;-74
2022/11/14 06:34:24;;;;;;;21.70;11.70;;;;;;;9.89;66.22;96844.44;4918504;28;20317;-75
2022/11/14 06:36:49;;;;;;;21.90;12.38;;;;;;;9.90;66.15;96846.81;4892028;28;20224;-75
2022/11/14 06:39:14;;;;;;;19.70;11.88;;;;;;;9.89;66.10;96845.22;4913427;28;20188;-75
2022/11/14 06:41:40;;;;;;;22.55;12.27;;;;;;;9.88;66.13;96842.88;4934979;28;20523;-74
2022/11/14 06:44:07;;;;;;;23.95;13.27;;;;;;;9.85;66.09;96830.34;4901285;28;20285;-74
2022/11/14 06:46:32;;;;;;;22.80;15.88;;;;;;;9.91;65.81;96827.56;4901268;28;20287;-75
2022/11/14 06:48:58;;;;;;;22.88;13.90;;;;;;;9.87;65.59;96826.50;4919949;28;20691;-75
2022/11/14 06:51:23;;;;;;;17.13;10.15;;;;;;;9.76;65.57;96835.22;4918441;28;20649;-75
2022/11/14 06:53:48;;;;;;;16.13;9.60;;;;;;;9.76;65.53;96837.81;4945009;28;20274;-75
2022/11/14 06:56:15;;;;;;;16.02;9.55;;;;;;;9.74;65.52;96852.88;4907850;28;20720;-75
2022/11/14 06:58:44;;;;;;;15.10;9.18;;;;;;;9.66;65.30;96846.31;4926047;28;20278;-75
2022/11/14 07:01:15;;;;;;;18.45;9.88;;;;;;;9.69;65.34;96834.66;4897886;28;20177;-75
2022/11/14 07:03:41;;;;;;;16.00;9.57;;;;;;;9.59;65.94;96844.94;4913559;28;20504;-75
2022/11/14 07:06:08;;;;;;;16.55;9.57;;;;;;;9.57;65.47;96842.59;4937894;28;20304;-75
2022/11/14 07:08:33;;;;;;;19.13;10.50;;;;;;;9.48;65.42;96833.69;4908871;28;20265;-74
2022/11/14 07:11:03;;;;;;;15.95;10.02;;;;;;;9.55;65.61;96836.88;4898729;28;20302;-75
2022/11/14 07:13:30;;;;;;;17.38;10.43;;;;;;;9.42;65.37;96848.41;4919429;28;20243;-75
2022/11/14 07:15:55;;;;;;;21.00;11.98;;;;;;;9.43;65.90;96863.00;4894222;28;20174;-75
2022/11/14 07:18:21;;;;;;;19.05;11.07;;;;;;;9.45;65.38;96860.16;4951233;28;20556;-74
2022/11/14 07:20:46;;;;;;;22.83;13.15;;;;;;;9.44;65.36;96867.16;4918844;28;20287;-74
2022/11/14 07:23:12;;;;;;;18.55;10.70;;;;;;;9.40;66.20;96868.66;4913455;28;20287;-74
2022/11/14 07:25:37;;;;;;;17.73;9.73;;;;;;;9.50;65.87;96871.38;4939950;28;20710;-75
2022/11/14 07:28:03;;;;;;;16.45;9.15;;;;;;;9.62;66.01;96873.06;4921010;28;20626;-75
2022/11/14 07:30:28;;;;;;;14.05;8.93;;;;;;;9.67;66.14;96871.28;4919049;28;20178;-75
2022/11/14 07:32:55;;;;;;;12.35;8.10;;;;;;;9.79;66.01;96855.53;4933544;28;20287;-75
2022/11/14 07:35:21;;;;;;;15.32;8.80;;;;;;;9.74;66.11;96861.47;4921237;28;20171;-75
2022/11/14 07:37:46;;;;;;;13.30;7.80;;;;;;;9.78;66.31;96859.16;4933500;28;20213;-74
2022/11/14 07:40:11;;;;;;;13.73;8.60;;;;;;;9.81;66.44;96863.88;4918333;28;20123;-75
2022/11/14 07:42:37;;;;;;;15.70;8.85;;;;;;;9.81;66.27;96866.47;4915182;28;20182;-74
2022/11/14 07:45:02;;;;;;;14.23;8.60;;;;;;;9.85;66.23;96867.56;4899293;28;20300;-74
2022/11/14 07:47:28;;;;;;;12.88;7.80;;;;;;;9.88;66.14;96864.44;4894210;28;20270;-75
2022/11/14 07:49:53;;;;;;;14.05;9.07;;;;;;;9.92;66.15;96870.75;4901641;28;20172;-74
2022/11/14 07:52:18;;;;;;;14.48;9.27;;;;;;;10.00;66.11;96868.72;4904490;28;20166;-75
2022/11/14 07:54:44;;;;;;;13.23;8.10;;;;;;;9.96;66.44;96858.03;4913655;28;20272;-75
2022/11/14 07:57:09;;;;;;;13.82;7.65;;;;;;;10.05;66.09;96869.53;4880024;28;20217;-75
2022/11/14 07:59:34;;;;;;;13.45;8.13;;;;;;;10.13;65.83;96868.31;4913931;28;20288;-75
2022/11/14 08:02:00;;;;;;;12.27;7.40;;;;;;;10.16;65.82;96873.03;4895865;28;20341;-75
2022/11/14 08:04:25;;;;;;;14.32;8.57;;;;;;;10.18;65.62;96875.34;4877808;28;20328;-75
2022/11/14 08:06:51;;;;;;;11.05;6.15;;;;;;;10.21;65.46;96872.25;4908535;28;20217;-75
2022/11/14 08:09:16;;;;;;;11.50;6.57;;;;;;;10.25;65.16;96881.16;4899553;28;20206;-75
2022/11/14 08:11:48;;;;;;;11.00;6.97;;;;;;;10.24;65.56;96877.75;4916672;28;20197;-75
2022/11/14 08:14:14;;;;;;;10.75;6.80;;;;;;;10.37;65.29;96891.41;4895663;28;20291;-74
2022/11/14 08:16:39;;;;;;;10.63;6.28;;;;;;;10.40;65.54;96891.69;4923892;28;20289;-75
2022/11/14 08:19:05;;;;;;;11.73;7.03;;;;;;;10.48;64.43;96904.22;4924299;28;20552;-75
2022/11/14 08:21:30;;;;;;;11.52;6.72;;;;;;;10.48;64.96;96904.22;4924350;28;20382;-75
2022/11/14 08:23:56;;;;;;;10.35;6.35;;;;;;;10.46;65.07;96892.50;4908082;28;20337;-74
2022/11/14 08:26:21;;;;;;;10.18;6.05;;;;;;;10.43;65.01;96895.59;4925955;28;20269;-75
2022/11/14 08:28:46;;;;;;;9.80;5.95;;;;;;;10.47;65.79;96878.47;4908313;28;20209;-75
2022/11/14 08:31:15;;;;;;;11.15;6.03;;;;;;;10.68;65.22;96882.75;4892066;28;20208;-75
2022/11/14 08:33:40;;;;;;;10.70;5.90;;;;;;;10.63;65.03;96879.34;4924169;28;20675;-75
2022/11/14 08:36:06;;;;;;;10.32;6.50;;;;;;;10.66;65.01;96879.63;4926114;28;20209;-75
2022/11/14 08:38:33;;;;;;;9.85;6.28;;;;;;;10.69;65.26;96870.50;4907931;28;20593;-75
2022/11/14 08:41:02;;;;;;;12.23;7.72;;;;;;;10.77;65.81;96869.25;4920336;28;20371;-74
2022/11/14 08:43:28;;;;;;;11.32;7.03;;;;;;;10.71;65.84;96865.84;4922969;28;20192;-75
2022/11/14 08:46:02;;;;;;;13.90;7.35;;;;;;;10.90;66.09;96873.22;4920110;28;20318;-74
2022/11/14 08:48:27;;;;;;;11.52;7.50;;;;;;;10.92;65.94;96871.94;4907168;28;20295;-75
2022/11/14 08:50:52;;;;;;;11.15;6.93;;;;;;;10.95;65.55;96884.47;4904150;28;20779;-74
2022/11/14 08:53:18;;;;;;;9.50;7.18;;;;;;;10.98;65.71;96880.56;4920621;28;20642;-75
2022/11/14 08:55:44;;;;;;;12.63;7.25;;;;;;;10.87;66.19;96879.72;4923541;28;20209;-75
2022/11/14 08:58:10;;;;;;;15.10;7.78;;;;;;;10.98;65.87;96883.94;4923934;28;20399;-75
2022/11/14 09:00:35;;;;;;;10.20;6.25;;;;;;;11.11;65.82;96894.97;4891822;28;20165;-75
2022/11/14 09:03:09;;;;;;;11.10;7.13;;;;;;;11.19;65.53;96877.00;4924039;28;20650;-74
2022/11/14 09:05:35;;;;;;;12.35;7.45;;;;;;;11.15;65.01;96888.19;4925594;28;20800;-74
2022/11/14 09:08:01;;;;;;;12.05;7.15;;;;;;;11.19;65.07;96882.22;4929919;28;20375;-75
2022/11/14 09:10:27;;;;;;;10.90;7.15;;;;;;;11.13;65.40;96887.66;4919063;28;20621;-75
2022/11/14 09:12:56;;;;;;;10.52;6.43;;;;;;;11.33;64.64;96879.91;4939816;28;20166;-75
2022/11/14 09:15:21;;;;;;;8.48;6.10;;;;;;;11.24;64.88;96887.44;4929556;28;20249;-75
2022/11/14 09:17:47;;;;;;;10.40;7.50;;;;;;;11.30;64.52;96875.22;4927638;28;20714;-75
2022/11/14 09:20:13;;;;;;;10.68;6.65;;;;;;;11.22;64.36;96873.91;4929507;28;20199;-75
2022/11/14 09:22:38;;;;;;;11.15;6.78;;;;;;;11.21;64.95;96874.91;4927658;28;20268;-75
2022/11/14 09:25:04;;;;;;;10.25;5.88;;;;;;;11.29;64.68;96875.47;4927316;28;20305;-75
2022/11/14 09:27:29;;;;;;;12.38;7.03;;;;;;;11.28;64.38;96864.25;4929705;28;20098;-75
2022/11/14 09:29:55;;;;;;;10.80;6.68;;;;;;;11.27;65.15;96870.50;4929875;28;20173;-75
2022/11/14 09:32:20;;;;;;;12.20;7.80;;;;;;;11.33;64.84;96873.94;4929722;28;20123;-75
2022/11/14 09:34:46;;;;;;;10.80;6.78;;;;;;;11.42;64.60;96875.75;4927564;28;20302;-75
2022/11/14 09:37:12;;;;;;;11.95;7.38;;;;;;;11.46;63.93;96867.44;4929627;28;20169;-75
2022/11/14 09:39:39;;;;;;;9.40;6.40;;;;;;;11.46;64.34;96875.25;4925076;28;20287;-75
2022/11/14 09:42:29;;;;;;;12.20;6.90;;;;;;;11.65;64.08;96878.94;4927681;28;20274;-75
2022/11/14 09:44:58;;;;;;;11.68;7.03;;;;;;;11.51;63.45;96873.44;4923587;28;20759;-75
2022/11/14 09:47:35;;;;;;;11.15;7.32;;;;;;;11.56;64.50;96875.28;4929333;28;20607;-75
2022/11/14 09:50:25;;;;;;;10.25;7.05;;;;;;;11.69;63.52;96880.00;4919151;28;20204;-75
2022/11/14 09:52:58;;;;;;;11.13;6.88;;;;;;;11.61;63.78;96883.13;4927488;28;20592;-75
2022/11/14 09:55:28;;;;;;;12.52;6.82;;;;;;;11.62;64.07;96884.69;4943220;28;20741;-75
2022/11/14 09:57:54;;;;;;;11.18;6.13;;;;;;;11.56;63.80;96876.06;4927093;28;20660;-75
2022/11/14 10:00:21;;;;;;;10.25;6.32;;;;;;;11.59;64.10;96883.38;4911172;28;20288;-75
2022/11/14 10:03:05;;;;;;;11.18;6.93;;;;;;;11.67;63.83;96876.88;4910877;28;20253;-75
2022/11/14 10:06:08;;;;;;;12.55;7.22;;;;;;;11.68;64.36;96878.44;4928818;28;20261;-75
2022/11/14 10:09:00;;;;;;;11.98;6.82;;;;;;;11.86;63.89;96884.19;4929039;28;20324;-74
2022/11/14 10:11:33;;;;;;;11.07;6.72;;;;;;;11.80;63.67;96865.91;4922379;28;20203;-74
2022/11/14 10:14:18;;;;;;;11.07;6.63;;;;;;;11.85;64.43;96870.38;4910796;28;20579;-75
2022/11/14 10:17:18;;;;;;;10.00;6.80;;;;;;;11.93;63.77;96866.50;4926543;28;20192;-75
2022/11/14 10:19:55;;;;;;;8.80;5.95;;;;;;;11.99;63.43;96868.06;4910687;28;20282;-75
2022/11/14 10:22:43;;;;;;;8.63;6.03;;;;;;;12.03;63.07;96858.69;4894105;28;20298;-75
2022/11/14 10:25:14;;;;;;;9.13;5.82;;;;;;;11.87;63.18;96855.22;4927559;28;20208;-75
2022/11/14 10:28:03;;;;;;;9.75;6.03;;;;;;;11.97;63.01;96855.28;4928607;28;20660;-75
2022/11/14 10:30:36;;;;;;;8.85;5.63;;;;;;;11.95;63.32;96849.53;4926406;28;20308;-75
2022/11/14 10:33:08;;;;;;;9.73;5.22;;;;;;;12.05;63.09;96848.00;4926519;28;20166;-75
2022/11/14 10:35:33;;;;;;;8.27;5.30;;;;;;;11.92;63.56;96852.66;4926135;28;20299;-75
2022/11/14 10:38:20;;;;;;;9.68;6.45;;;;;;;12.14;63.13;96849.00;4889652;28;20207;-75
2022/11/14 10:40:51;;;;;;;8.02;5.65;;;;;;;12.22;63.21;96851.09;4920002;28;20295;-75
2022/11/14 10:43:22;;;;;;;8.10;5.60;;;;;;;12.21;63.53;96848.75;4909796;28;20263;-75
2022/11/14 10:45:53;;;;;;;9.00;5.80;;;;;;;12.20;63.57;96841.97;4921873;28;20700;-74
2022/11/14 10:48:29;;;;;;;8.68;6.00;;;;;;;12.29;62.96;96843.78;4909763;28;20757;-75
2022/11/14 10:51:05;;;;;;;10.23;5.55;;;;;;;12.25;62.89;96839.34;4903168;28;20327;-75
2022/11/14 10:54:05;;;;;;;8.23;5.70;;;;;;;12.33;62.07;96838.81;4925753;28;20193;-75
2022/11/14 10:56:31;;;;;;;7.47;5.80;;;;;;;12.14;62.41;96828.13;4921967;28;20209;-75
2022/11/14 10:58:57;;;;;;;7.40;5.22;;;;;;;12.11;62.65;96826.81;4909668;28;20187;-75
2022/11/14 11:01:40;;;;;;;8.88;5.38;;;;;;;12.44;61.67;96822.09;4927706;28;20250;-75
2022/11/14 11:04:21;;;;;;;8.70;5.47;;;;;;;12.33;61.92;96820.53;4908727;28;20244;-75
2022/11/14 11:06:51;;;;;;;7.13;5.60;;;;;;;12.29;61.65;96824.75;4928057;28;20376;-75
2022/11/14 11:12:17;;;;;;;8.30;5.38;;;;;;;12.38;62.76;96824.97;4925926;28;20308;-75
2022/11/14 11:14:44;;;;;;;7.43;5.13;;;;;;;12.37;62.55;96826.78;4924888;28;20658;-75
2022/11/14 11:17:14;;;;;;;9.43;6.13;;;;;;;12.48;62.04;96825.72;4925293;28;20187;-75
2022/11/14 11:19:40;;;;;;;7.85;5.28;;;;;;;12.47;62.12;96815.53;4925385;28;20253;-75
2022/11/14 11:22:25;;;;;;;7.93;4.87;;;;;;;12.58;62.16;96813.69;4925124;28;20196;-75
2022/11/14 11:24:51;;;;;;;6.88;5.00;;;;;;;12.46;62.47;96811.38;4925016;28;20340;-75
2022/11/14 11:27:27;;;;;;;7.50;4.97;;;;;;;12.69;61.84;96813.38;4908191;28;20624;-76
2022/11/14 11:30:21;;;;;;;7.45;5.07;;;;;;;12.66;62.23;96813.94;4926830;28;20527;-74
2022/11/14 11:32:47;;;;;;;7.97;5.22;;;;;;;12.62;62.50;96812.13;4924933;28;20208;-75